sensor_id;sensor_type;location;lat;lon;timestamp;P1;durP1;ratioP1;P2;durP2;ratioP2
62163;SDS011;48149;51.132;7.178;2022-07-04T00:01:48;3.03;;;1.20;;
62163;SDS011;48149;51.132;7.178;2022-07-04T00:04:13;2.75;;;1.30;;
62163;SDS011;48149;51.132;7.178;2022-07-04T00:06:38;1.88;;;1.10;;
62163;SDS011;48149;51.132;7.178;2022-07-04T00:09:04;1.77;;;1.08;;
62163;SDS011;48149;51.132;7.178;2022-07-04T00:11:29;2.70;;;1.27;;
62163;SDS011;48149;51.132;7.178;2022-07-04T00:13:55;2.05;;;1.30;;
62163;SDS011;48149;51.132;7.178;2022-07-04T00:16:20;3.10;;;1.52;;
62163;SDS011;48149;51.132;7.178;2022-07-04T00:18:46;2.25;;;1.08;;
62163;SDS011;48149;51.132;7.178;2022-07-04T00:21:11;2.53;;;1.35;;
62163;SDS011;48149;51.132;7.178;2022-07-04T00:23:39;2.20;;;1.30;;
62163;SDS011;48149;51.132;7.178;2022-07-04T00:26:04;3.40;;;1.23;;
62163;SDS011;48149;51.132;7.178;2022-07-04T00:28:29;2.80;;;1.08;;
62163;SDS011;48149;51.132;7.178;2022-07-04T00:30:55;1.70;;;1.10;;
62163;SDS011;48149;51.132;7.178;2022-07-04T00:33:20;2.10;;;1.20;;
62163;SDS011;48149;51.132;7.178;2022-07-04T00:35:46;2.40;;;1.20;;
62163;SDS011;48149;51.132;7.178;2022-07-04T00:38:11;2.58;;;1.10;;
62163;SDS011;48149;51.132;7.178;2022-07-04T00:40:37;3.35;;;0.88;;
62163;SDS011;48149;51.132;7.178;2022-07-04T00:43:03;2.55;;;1.20;;
62163;SDS011;48149;51.132;7.178;2022-07-04T00:45:29;2.05;;;1.00;;
62163;SDS011;48149;51.132;7.178;2022-07-04T00:47:54;1.70;;;1.00;;
62163;SDS011;48149;51.132;7.178;2022-07-04T00:50:20;2.25;;;1.13;;
62163;SDS011;48149;51.132;7.178;2022-07-04T00:52:47;2.33;;;1.30;;
62163;SDS011;48149;51.132;7.178;2022-07-04T00:55:14;1.65;;;1.10;;
62163;SDS011;48149;51.132;7.178;2022-07-04T00:57:40;3.55;;;1.23;;
62163;SDS011;48149;51.132;7.178;2022-07-04T01:00:06;2.08;;;1.20;;
62163;SDS011;48149;51.132;7.178;2022-07-04T01:02:32;1.70;;;1.20;;
62163;SDS011;48149;51.132;7.178;2022-07-04T01:04:57;2.55;;;1.40;;
62163;SDS011;48149;51.132;7.178;2022-07-04T01:07:22;2.03;;;1.15;;
62163;SDS011;48149;51.132;7.178;2022-07-04T01:09:48;1.95;;;1.17;;
62163;SDS011;48149;51.132;7.178;2022-07-04T01:12:35;2.10;;;1.10;;
62163;SDS011;48149;51.132;7.178;2022-07-04T01:15:02;2.38;;;1.20;;
62163;SDS011;48149;51.132;7.178;2022-07-04T01:17:28;3.75;;;1.10;;
62163;SDS011;48149;51.132;7.178;2022-07-04T01:19:56;1.88;;;1.08;;
62163;SDS011;48149;51.132;7.178;2022-07-04T01:22:24;2.28;;;1.33;;
62163;SDS011;48149;51.132;7.178;2022-07-04T01:24:50;2.20;;;1.20;;
62163;SDS011;48149;51.132;7.178;2022-07-04T01:27:16;2.38;;;1.30;;
62163;SDS011;48149;51.132;7.178;2022-07-04T01:29:44;1.38;;;1.00;;
62163;SDS011;48149;51.132;7.178;2022-07-04T01:32:10;6.55;;;1.35;;
62163;SDS011;48149;51.132;7.178;2022-07-04T01:34:45;2.42;;;1.25;;
62163;SDS011;48149;51.132;7.178;2022-07-04T01:37:14;3.70;;;1.77;;
62163;SDS011;48149;51.132;7.178;2022-07-04T01:39:47;5.30;;;1.33;;
62163;SDS011;48149;51.132;7.178;2022-07-04T01:42:15;2.35;;;1.40;;
62163;SDS011;48149;51.132;7.178;2022-07-04T01:44:41;1.75;;;1.15;;
62163;SDS011;48149;51.132;7.178;2022-07-04T01:47:06;4.68;;;1.40;;
62163;SDS011;48149;51.132;7.178;2022-07-04T01:49:32;3.90;;;1.60;;
62163;SDS011;48149;51.132;7.178;2022-07-04T01:52:00;3.50;;;1.33;;
62163;SDS011;48149;51.132;7.178;2022-07-04T01:54:31;4.13;;;1.30;;
62163;SDS011;48149;51.132;7.178;2022-07-04T01:56:56;2.38;;;1.13;;
62163;SDS011;48149;51.132;7.178;2022-07-04T01:59:24;3.78;;;1.38;;
62163;SDS011;48149;51.132;7.178;2022-07-04T02:02:13;2.10;;;1.20;;
62163;SDS011;48149;51.132;7.178;2022-07-04T02:04:41;2.47;;;1.40;;
62163;SDS011;48149;51.132;7.178;2022-07-04T02:07:06;8.82;;;1.40;;
62163;SDS011;48149;51.132;7.178;2022-07-04T02:09:32;1.90;;;1.20;;
62163;SDS011;48149;51.132;7.178;2022-07-04T02:11:57;2.03;;;1.25;;
62163;SDS011;48149;51.132;7.178;2022-07-04T02:14:42;3.40;;;1.30;;
62163;SDS011;48149;51.132;7.178;2022-07-04T02:17:09;2.90;;;1.58;;
62163;SDS011;48149;51.132;7.178;2022-07-04T02:19:35;4.95;;;1.58;;
62163;SDS011;48149;51.132;7.178;2022-07-04T02:22:00;5.28;;;1.60;;
62163;SDS011;48149;51.132;7.178;2022-07-04T02:24:26;2.75;;;1.70;;
62163;SDS011;48149;51.132;7.178;2022-07-04T02:26:51;2.80;;;1.45;;
62163;SDS011;48149;51.132;7.178;2022-07-04T02:29:17;2.08;;;1.45;;
62163;SDS011;48149;51.132;7.178;2022-07-04T02:31:42;3.42;;;1.42;;
62163;SDS011;48149;51.132;7.178;2022-07-04T02:34:08;4.32;;;1.20;;
62163;SDS011;48149;51.132;7.178;2022-07-04T02:36:34;2.95;;;1.17;;
62163;SDS011;48149;51.132;7.178;2022-07-04T02:38:59;2.47;;;1.35;;
62163;SDS011;48149;51.132;7.178;2022-07-04T02:41:25;2.63;;;1.48;;
62163;SDS011;48149;51.132;7.178;2022-07-04T02:43:50;2.75;;;1.58;;
62163;SDS011;48149;51.132;7.178;2022-07-04T02:46:16;2.15;;;1.40;;
62163;SDS011;48149;51.132;7.178;2022-07-04T02:48:44;2.67;;;1.38;;
62163;SDS011;48149;51.132;7.178;2022-07-04T02:51:09;3.05;;;1.85;;
62163;SDS011;48149;51.132;7.178;2022-07-04T02:53:34;2.35;;;1.60;;
62163;SDS011;48149;51.132;7.178;2022-07-04T02:56:02;5.55;;;1.60;;
62163;SDS011;48149;51.132;7.178;2022-07-04T02:58:30;3.72;;;1.65;;
62163;SDS011;48149;51.132;7.178;2022-07-04T03:00:59;5.55;;;2.20;;
62163;SDS011;48149;51.132;7.178;2022-07-04T03:03:25;4.07;;;1.75;;
62163;SDS011;48149;51.132;7.178;2022-07-04T03:05:53;4.72;;;2.00;;
62163;SDS011;48149;51.132;7.178;2022-07-04T03:08:21;3.38;;;1.80;;
62163;SDS011;48149;51.132;7.178;2022-07-04T03:10:49;6.05;;;2.20;;
62163;SDS011;48149;51.132;7.178;2022-07-04T03:13:16;3.42;;;1.77;;
62163;SDS011;48149;51.132;7.178;2022-07-04T03:15:49;6.00;;;2.00;;
62163;SDS011;48149;51.132;7.178;2022-07-04T03:18:15;3.13;;;1.98;;
62163;SDS011;48149;51.132;7.178;2022-07-04T03:20:42;4.45;;;1.55;;
62163;SDS011;48149;51.132;7.178;2022-07-04T03:23:13;3.60;;;1.60;;
62163;SDS011;48149;51.132;7.178;2022-07-04T03:25:42;5.38;;;1.60;;
62163;SDS011;48149;51.132;7.178;2022-07-04T03:28:08;3.10;;;1.80;;
62163;SDS011;48149;51.132;7.178;2022-07-04T03:30:35;4.65;;;1.98;;
62163;SDS011;48149;51.132;7.178;2022-07-04T03:33:00;4.68;;;2.03;;
62163;SDS011;48149;51.132;7.178;2022-07-04T03:35:26;4.95;;;2.40;;
62163;SDS011;48149;51.132;7.178;2022-07-04T03:37:52;3.38;;;1.83;;
62163;SDS011;48149;51.132;7.178;2022-07-04T03:40:22;6.72;;;1.83;;
62163;SDS011;48149;51.132;7.178;2022-07-04T03:42:48;2.75;;;1.70;;
62163;SDS011;48149;51.132;7.178;2022-07-04T03:45:25;4.93;;;1.90;;
62163;SDS011;48149;51.132;7.178;2022-07-04T03:47:51;3.03;;;1.75;;
62163;SDS011;48149;51.132;7.178;2022-07-04T03:50:21;4.30;;;1.63;;
62163;SDS011;48149;51.132;7.178;2022-07-04T03:52:49;6.55;;;2.13;;
62163;SDS011;48149;51.132;7.178;2022-07-04T03:55:17;4.20;;;2.10;;
62163;SDS011;48149;51.132;7.178;2022-07-04T03:57:42;3.20;;;2.00;;
62163;SDS011;48149;51.132;7.178;2022-07-04T04:00:17;4.03;;;1.98;;
62163;SDS011;48149;51.132;7.178;2022-07-04T04:02:47;4.68;;;2.00;;
62163;SDS011;48149;51.132;7.178;2022-07-04T04:05:15;6.82;;;2.53;;
62163;SDS011;48149;51.132;7.178;2022-07-04T04:08:01;5.03;;;1.90;;
62163;SDS011;48149;51.132;7.178;2022-07-04T04:10:28;7.75;;;2.40;;
62163;SDS011;48149;51.132;7.178;2022-07-04T04:12:55;4.03;;;2.45;;
62163;SDS011;48149;51.132;7.178;2022-07-04T04:15:26;3.08;;;1.77;;
62163;SDS011;48149;51.132;7.178;2022-07-04T04:17:57;2.85;;;1.92;;
62163;SDS011;48149;51.132;7.178;2022-07-04T04:20:27;4.22;;;1.80;;
62163;SDS011;48149;51.132;7.178;2022-07-04T04:22:53;6.15;;;2.05;;
62163;SDS011;48149;51.132;7.178;2022-07-04T04:25:25;5.22;;;1.92;;
62163;SDS011;48149;51.132;7.178;2022-07-04T04:27:57;3.15;;;1.83;;
62163;SDS011;48149;51.132;7.178;2022-07-04T04:30:22;4.85;;;1.98;;
62163;SDS011;48149;51.132;7.178;2022-07-04T04:32:48;3.50;;;2.10;;
62163;SDS011;48149;51.132;7.178;2022-07-04T04:35:14;2.88;;;1.80;;
62163;SDS011;48149;51.132;7.178;2022-07-04T04:37:40;4.22;;;2.22;;
62163;SDS011;48149;51.132;7.178;2022-07-04T04:40:06;6.47;;;2.42;;
62163;SDS011;48149;51.132;7.178;2022-07-04T04:42:32;3.13;;;2.10;;
62163;SDS011;48149;51.132;7.178;2022-07-04T04:45:01;4.25;;;2.22;;
62163;SDS011;48149;51.132;7.178;2022-07-04T04:47:34;4.43;;;2.28;;
62163;SDS011;48149;51.132;7.178;2022-07-04T04:49:59;3.20;;;2.05;;
62163;SDS011;48149;51.132;7.178;2022-07-04T04:52:30;10.45;;;2.95;;
62163;SDS011;48149;51.132;7.178;2022-07-04T04:54:56;4.88;;;2.30;;
62163;SDS011;48149;51.132;7.178;2022-07-04T04:57:28;5.60;;;2.25;;
62163;SDS011;48149;51.132;7.178;2022-07-04T04:59:57;6.53;;;2.85;;
62163;SDS011;48149;51.132;7.178;2022-07-04T05:02:22;5.32;;;2.60;;
62163;SDS011;48149;51.132;7.178;2022-07-04T05:04:48;6.85;;;2.60;;
62163;SDS011;48149;51.132;7.178;2022-07-04T05:07:17;5.50;;;2.50;;
62163;SDS011;48149;51.132;7.178;2022-07-04T05:09:42;6.63;;;2.92;;
62163;SDS011;48149;51.132;7.178;2022-07-04T05:12:10;6.03;;;2.70;;
62163;SDS011;48149;51.132;7.178;2022-07-04T05:14:36;4.95;;;2.50;;
62163;SDS011;48149;51.132;7.178;2022-07-04T05:17:02;7.78;;;2.63;;
62163;SDS011;48149;51.132;7.178;2022-07-04T05:19:28;4.75;;;2.63;;
62163;SDS011;48149;51.132;7.178;2022-07-04T05:21:56;4.97;;;2.63;;
62163;SDS011;48149;51.132;7.178;2022-07-04T05:24:22;4.03;;;2.67;;
62163;SDS011;48149;51.132;7.178;2022-07-04T05:26:49;5.05;;;2.38;;
62163;SDS011;48149;51.132;7.178;2022-07-04T05:29:14;5.95;;;2.85;;
62163;SDS011;48149;51.132;7.178;2022-07-04T05:31:40;3.78;;;2.42;;
62163;SDS011;48149;51.132;7.178;2022-07-04T05:34:06;5.50;;;2.25;;
62163;SDS011;48149;51.132;7.178;2022-07-04T05:36:31;6.82;;;2.58;;
62163;SDS011;48149;51.132;7.178;2022-07-04T05:39:02;5.75;;;2.67;;
62163;SDS011;48149;51.132;7.178;2022-07-04T05:41:30;4.03;;;2.70;;
62163;SDS011;48149;51.132;7.178;2022-07-04T05:43:58;6.32;;;2.60;;
62163;SDS011;48149;51.132;7.178;2022-07-04T05:46:24;4.20;;;2.47;;
62163;SDS011;48149;51.132;7.178;2022-07-04T05:48:52;4.25;;;2.50;;
62163;SDS011;48149;51.132;7.178;2022-07-04T05:51:18;7.57;;;3.35;;
62163;SDS011;48149;51.132;7.178;2022-07-04T05:53:48;7.43;;;3.13;;
62163;SDS011;48149;51.132;7.178;2022-07-04T05:56:14;5.30;;;3.17;;
62163;SDS011;48149;51.132;7.178;2022-07-04T05:58:49;4.93;;;2.97;;
62163;SDS011;48149;51.132;7.178;2022-07-04T06:01:18;5.60;;;2.90;;
62163;SDS011;48149;51.132;7.178;2022-07-04T06:03:45;6.15;;;3.17;;
62163;SDS011;48149;51.132;7.178;2022-07-04T06:06:11;5.82;;;3.10;;
62163;SDS011;48149;51.132;7.178;2022-07-04T06:08:39;7.05;;;2.72;;
62163;SDS011;48149;51.132;7.178;2022-07-04T06:11:04;8.70;;;3.00;;
62163;SDS011;48149;51.132;7.178;2022-07-04T06:13:47;11.13;;;4.28;;
62163;SDS011;48149;51.132;7.178;2022-07-04T06:16:13;5.97;;;2.88;;
62163;SDS011;48149;51.132;7.178;2022-07-04T06:18:39;10.02;;;3.28;;
62163;SDS011;48149;51.132;7.178;2022-07-04T06:21:11;7.45;;;3.10;;
62163;SDS011;48149;51.132;7.178;2022-07-04T06:23:37;7.68;;;3.42;;
62163;SDS011;48149;51.132;7.178;2022-07-04T06:26:02;5.55;;;3.05;;
62163;SDS011;48149;51.132;7.178;2022-07-04T06:28:28;10.82;;;3.38;;
62163;SDS011;48149;51.132;7.178;2022-07-04T06:30:54;7.10;;;3.92;;
62163;SDS011;48149;51.132;7.178;2022-07-04T06:33:22;7.68;;;3.58;;
62163;SDS011;48149;51.132;7.178;2022-07-04T06:35:53;30.27;;;7.93;;
62163;SDS011;48149;51.132;7.178;2022-07-04T06:38:25;5.85;;;3.47;;
62163;SDS011;48149;51.132;7.178;2022-07-04T06:40:58;6.20;;;3.17;;
62163;SDS011;48149;51.132;7.178;2022-07-04T06:43:24;5.75;;;3.53;;
62163;SDS011;48149;51.132;7.178;2022-07-04T06:45:55;6.85;;;3.60;;
62163;SDS011;48149;51.132;7.178;2022-07-04T06:48:24;6.63;;;3.67;;
62163;SDS011;48149;51.132;7.178;2022-07-04T06:50:54;6.30;;;3.80;;
62163;SDS011;48149;51.132;7.178;2022-07-04T06:53:22;8.45;;;3.60;;
62163;SDS011;48149;51.132;7.178;2022-07-04T06:55:50;11.25;;;3.85;;
62163;SDS011;48149;51.132;7.178;2022-07-04T06:58:16;7.47;;;3.33;;
62163;SDS011;48149;51.132;7.178;2022-07-04T07:00:51;8.05;;;4.47;;
62163;SDS011;48149;51.132;7.178;2022-07-04T07:03:17;10.10;;;3.63;;
62163;SDS011;48149;51.132;7.178;2022-07-04T07:05:43;7.20;;;3.28;;
62163;SDS011;48149;51.132;7.178;2022-07-04T07:08:08;6.82;;;3.53;;
62163;SDS011;48149;51.132;7.178;2022-07-04T07:10:34;5.65;;;3.03;;
62163;SDS011;48149;51.132;7.178;2022-07-04T07:13:00;8.05;;;3.83;;
62163;SDS011;48149;51.132;7.178;2022-07-04T07:15:26;8.40;;;3.95;;
62163;SDS011;48149;51.132;7.178;2022-07-04T07:17:53;6.03;;;3.45;;
62163;SDS011;48149;51.132;7.178;2022-07-04T07:20:18;10.02;;;4.07;;
62163;SDS011;48149;51.132;7.178;2022-07-04T07:22:44;10.07;;;3.25;;
62163;SDS011;48149;51.132;7.178;2022-07-04T07:25:10;7.80;;;3.13;;
62163;SDS011;48149;51.132;7.178;2022-07-04T07:27:53;8.52;;;3.65;;
62163;SDS011;48149;51.132;7.178;2022-07-04T07:30:23;6.07;;;2.42;;
62163;SDS011;48149;51.132;7.178;2022-07-04T07:32:54;5.17;;;2.70;;
62163;SDS011;48149;51.132;7.178;2022-07-04T07:38:13;5.45;;;2.60;;
62163;SDS011;48149;51.132;7.178;2022-07-04T07:40:39;5.72;;;2.05;;
62163;SDS011;48149;51.132;7.178;2022-07-04T07:43:12;8.45;;;3.17;;
62163;SDS011;48149;51.132;7.178;2022-07-04T07:45:55;3.33;;;1.92;;
62163;SDS011;48149;51.132;7.178;2022-07-04T07:48:31;3.58;;;1.20;;
62163;SDS011;48149;51.132;7.178;2022-07-04T07:50:57;4.50;;;1.50;;
62163;SDS011;48149;51.132;7.178;2022-07-04T07:53:26;2.53;;;1.38;;
62163;SDS011;48149;51.132;7.178;2022-07-04T07:55:52;4.60;;;1.75;;
62163;SDS011;48149;51.132;7.178;2022-07-04T07:58:19;2.22;;;1.33;;
62163;SDS011;48149;51.132;7.178;2022-07-04T08:00:45;4.00;;;1.70;;
62163;SDS011;48149;51.132;7.178;2022-07-04T08:03:13;5.53;;;1.50;;
62163;SDS011;48149;51.132;7.178;2022-07-04T08:05:58;4.53;;;1.75;;
62163;SDS011;48149;51.132;7.178;2022-07-04T08:08:23;4.47;;;1.55;;
62163;SDS011;48149;51.132;7.178;2022-07-04T08:10:51;3.58;;;1.30;;
62163;SDS011;48149;51.132;7.178;2022-07-04T08:13:16;2.55;;;0.93;;
62163;SDS011;48149;51.132;7.178;2022-07-04T08:15:42;3.10;;;1.13;;
62163;SDS011;48149;51.132;7.178;2022-07-04T08:18:07;2.80;;;1.40;;
62163;SDS011;48149;51.132;7.178;2022-07-04T08:20:36;2.35;;;1.55;;
62163;SDS011;48149;51.132;7.178;2022-07-04T08:23:01;4.00;;;1.38;;
62163;SDS011;48149;51.132;7.178;2022-07-04T08:25:31;2.38;;;1.23;;
62163;SDS011;48149;51.132;7.178;2022-07-04T08:28:03;3.22;;;1.33;;
62163;SDS011;48149;51.132;7.178;2022-07-04T08:30:31;3.22;;;1.42;;
62163;SDS011;48149;51.132;7.178;2022-07-04T08:32:58;3.05;;;1.45;;
62163;SDS011;48149;51.132;7.178;2022-07-04T08:35:30;3.35;;;1.40;;
62163;SDS011;48149;51.132;7.178;2022-07-04T08:37:59;3.90;;;1.50;;
62163;SDS011;48149;51.132;7.178;2022-07-04T08:40:25;8.32;;;2.03;;
62163;SDS011;48149;51.132;7.178;2022-07-04T08:42:59;4.40;;;1.45;;
62163;SDS011;48149;51.132;7.178;2022-07-04T08:45:30;3.95;;;1.67;;
62163;SDS011;48149;51.132;7.178;2022-07-04T08:48:03;2.50;;;1.30;;
62163;SDS011;48149;51.132;7.178;2022-07-04T08:50:34;2.17;;;1.40;;
62163;SDS011;48149;51.132;7.178;2022-07-04T08:53:06;3.72;;;1.40;;
62163;SDS011;48149;51.132;7.178;2022-07-04T08:55:36;2.53;;;1.40;;
62163;SDS011;48149;51.132;7.178;2022-07-04T08:58:23;2.30;;;1.17;;
62163;SDS011;48149;51.132;7.178;2022-07-04T09:00:55;5.72;;;2.00;;
62163;SDS011;48149;51.132;7.178;2022-07-04T09:03:22;3.65;;;1.10;;
62163;SDS011;48149;51.132;7.178;2022-07-04T09:05:51;1.70;;;1.17;;
62163;SDS011;48149;51.132;7.178;2022-07-04T09:08:17;2.83;;;1.38;;
62163;SDS011;48149;51.132;7.178;2022-07-04T09:10:43;5.25;;;1.30;;
62163;SDS011;48149;51.132;7.178;2022-07-04T09:13:09;8.65;;;1.50;;
62163;SDS011;48149;51.132;7.178;2022-07-04T09:15:36;2.15;;;1.23;;
62163;SDS011;48149;51.132;7.178;2022-07-04T09:18:02;2.25;;;1.10;;
62163;SDS011;48149;51.132;7.178;2022-07-04T09:20:29;5.63;;;1.40;;
62163;SDS011;48149;51.132;7.178;2022-07-04T09:22:59;3.55;;;1.40;;
62163;SDS011;48149;51.132;7.178;2022-07-04T09:25:32;2.33;;;1.30;;
62163;SDS011;48149;51.132;7.178;2022-07-04T09:27:58;3.35;;;1.80;;
62163;SDS011;48149;51.132;7.178;2022-07-04T09:30:26;2.70;;;0.80;;
62163;SDS011;48149;51.132;7.178;2022-07-04T09:32:56;2.70;;;1.40;;
62163;SDS011;48149;51.132;7.178;2022-07-04T09:35:36;2.03;;;1.08;;
62163;SDS011;48149;51.132;7.178;2022-07-04T09:38:05;1.60;;;1.10;;
62163;SDS011;48149;51.132;7.178;2022-07-04T09:40:37;4.20;;;1.30;;
62163;SDS011;48149;51.132;7.178;2022-07-04T09:43:24;3.70;;;1.38;;
62163;SDS011;48149;51.132;7.178;2022-07-04T09:45:56;1.33;;;0.93;;
62163;SDS011;48149;51.132;7.178;2022-07-04T09:48:50;1.90;;;1.17;;
62163;SDS011;48149;51.132;7.178;2022-07-04T09:54:18;1.65;;;1.15;;
62163;SDS011;48149;51.132;7.178;2022-07-04T09:56:54;1.70;;;0.95;;
62163;SDS011;48149;51.132;7.178;2022-07-04T09:59:28;1.52;;;1.10;;
62163;SDS011;48149;51.132;7.178;2022-07-04T10:02:10;2.00;;;1.20;;
62163;SDS011;48149;51.132;7.178;2022-07-04T10:04:54;1.27;;;0.90;;
62163;SDS011;48149;51.132;7.178;2022-07-04T10:07:38;3.28;;;1.05;;
62163;SDS011;48149;51.132;7.178;2022-07-04T10:10:21;1.45;;;0.95;;
62163;SDS011;48149;51.132;7.178;2022-07-04T10:12:53;1.55;;;0.85;;
62163;SDS011;48149;51.132;7.178;2022-07-04T10:15:23;2.63;;;0.60;;
62163;SDS011;48149;51.132;7.178;2022-07-04T10:17:49;2.05;;;0.70;;
62163;SDS011;48149;51.132;7.178;2022-07-04T10:20:24;1.02;;;0.60;;
62163;SDS011;48149;51.132;7.178;2022-07-04T10:23:04;1.85;;;0.50;;
62163;SDS011;48149;51.132;7.178;2022-07-04T10:25:38;0.73;;;0.55;;
62163;SDS011;48149;51.132;7.178;2022-07-04T10:28:24;1.73;;;0.65;;
62163;SDS011;48149;51.132;7.178;2022-07-04T10:30:51;1.80;;;0.73;;
62163;SDS011;48149;51.132;7.178;2022-07-04T10:33:34;0.98;;;0.60;;
62163;SDS011;48149;51.132;7.178;2022-07-04T10:36:14;0.60;;;0.50;;
62163;SDS011;48149;51.132;7.178;2022-07-04T10:41:58;1.20;;;0.60;;
62163;SDS011;48149;51.132;7.178;2022-07-04T10:44:44;2.80;;;0.80;;
62163;SDS011;48149;51.132;7.178;2022-07-04T10:47:33;2.22;;;0.60;;
62163;SDS011;48149;51.132;7.178;2022-07-04T10:50:11;0.60;;;0.47;;
62163;SDS011;48149;51.132;7.178;2022-07-04T10:53:09;2.05;;;0.63;;
62163;SDS011;48149;51.132;7.178;2022-07-04T10:55:40;3.83;;;0.60;;
62163;SDS011;48149;51.132;7.178;2022-07-04T10:58:11;1.02;;;0.40;;
62163;SDS011;48149;51.132;7.178;2022-07-04T11:03:56;1.42;;;0.70;;
62163;SDS011;48149;51.132;7.178;2022-07-04T11:09:15;1.20;;;0.60;;
62163;SDS011;48149;51.132;7.178;2022-07-04T11:11:51;0.93;;;0.68;;
62163;SDS011;48149;51.132;7.178;2022-07-04T11:17:26;0.90;;;0.50;;
62163;SDS011;48149;51.132;7.178;2022-07-04T11:20:41;0.88;;;0.55;;
62163;SDS011;48149;51.132;7.178;2022-07-04T11:23:22;0.93;;;0.60;;
62163;SDS011;48149;51.132;7.178;2022-07-04T11:25:50;2.13;;;0.70;;
62163;SDS011;48149;51.132;7.178;2022-07-04T11:28:26;2.25;;;0.65;;
62163;SDS011;48149;51.132;7.178;2022-07-04T11:30:58;1.58;;;0.60;;
62163;SDS011;48149;51.132;7.178;2022-07-04T11:33:53;2.30;;;0.82;;
62163;SDS011;48149;51.132;7.178;2022-07-04T11:36:21;2.88;;;0.93;;
62163;SDS011;48149;51.132;7.178;2022-07-04T11:41:24;0.88;;;0.52;;
62163;SDS011;48149;51.132;7.178;2022-07-04T11:44:15;2.58;;;0.98;;
62163;SDS011;48149;51.132;7.178;2022-07-04T11:47:05;1.02;;;0.63;;
62163;SDS011;48149;51.132;7.178;2022-07-04T11:49:42;0.75;;;0.50;;
62163;SDS011;48149;51.132;7.178;2022-07-04T11:52:13;1.50;;;0.52;;
62163;SDS011;48149;51.132;7.178;2022-07-04T11:54:40;4.25;;;0.90;;
62163;SDS011;48149;51.132;7.178;2022-07-04T11:57:18;2.45;;;0.70;;
62163;SDS011;48149;51.132;7.178;2022-07-04T12:02:35;1.98;;;0.82;;
62163;SDS011;48149;51.132;7.178;2022-07-04T12:05:02;0.73;;;0.50;;
62163;SDS011;48149;51.132;7.178;2022-07-04T12:07:30;1.17;;;0.65;;
62163;SDS011;48149;51.132;7.178;2022-07-04T12:10:11;1.52;;;0.77;;
62163;SDS011;48149;51.132;7.178;2022-07-04T12:13:00;1.17;;;0.70;;
62163;SDS011;48149;51.132;7.178;2022-07-04T12:15:45;2.55;;;0.80;;
62163;SDS011;48149;51.132;7.178;2022-07-04T12:18:18;1.30;;;0.63;;
62163;SDS011;48149;51.132;7.178;2022-07-04T12:20:46;1.90;;;0.63;;
62163;SDS011;48149;51.132;7.178;2022-07-04T12:23:13;2.47;;;0.70;;
62163;SDS011;48149;51.132;7.178;2022-07-04T12:25:44;1.70;;;0.77;;
62163;SDS011;48149;51.132;7.178;2022-07-04T12:28:14;1.20;;;0.80;;
62163;SDS011;48149;51.132;7.178;2022-07-04T12:30:54;2.88;;;0.88;;
62163;SDS011;48149;51.132;7.178;2022-07-04T12:33:25;2.08;;;1.02;;
62163;SDS011;48149;51.132;7.178;2022-07-04T12:35:54;2.35;;;0.85;;
62163;SDS011;48149;51.132;7.178;2022-07-04T12:46:04;2.22;;;1.15;;
62163;SDS011;48149;51.132;7.178;2022-07-04T12:48:30;1.23;;;0.93;;
62163;SDS011;48149;51.132;7.178;2022-07-04T12:51:08;1.38;;;0.90;;
62163;SDS011;48149;51.132;7.178;2022-07-04T12:53:46;1.95;;;0.60;;
62163;SDS011;48149;51.132;7.178;2022-07-04T12:59:02;2.88;;;0.70;;
62163;SDS011;48149;51.132;7.178;2022-07-04T13:01:29;0.80;;;0.60;;
62163;SDS011;48149;51.132;7.178;2022-07-04T13:03:55;1.65;;;0.70;;
62163;SDS011;48149;51.132;7.178;2022-07-04T13:06:21;2.83;;;0.70;;
62163;SDS011;48149;51.132;7.178;2022-07-04T13:08:47;1.00;;;0.70;;
62163;SDS011;48149;51.132;7.178;2022-07-04T13:11:14;2.08;;;0.60;;
62163;SDS011;48149;51.132;7.178;2022-07-04T13:13:59;0.90;;;0.68;;
62163;SDS011;48149;51.132;7.178;2022-07-04T13:16:25;1.13;;;0.75;;
62163;SDS011;48149;51.132;7.178;2022-07-04T13:18:51;1.52;;;0.80;;
62163;SDS011;48149;51.132;7.178;2022-07-04T13:21:19;1.80;;;0.90;;
62163;SDS011;48149;51.132;7.178;2022-07-04T13:23:45;2.72;;;0.70;;
62163;SDS011;48149;51.132;7.178;2022-07-04T13:26:18;1.67;;;0.90;;
62163;SDS011;48149;51.132;7.178;2022-07-04T13:28:47;1.33;;;0.70;;
62163;SDS011;48149;51.132;7.178;2022-07-04T13:31:14;1.10;;;0.80;;
62163;SDS011;48149;51.132;7.178;2022-07-04T13:33:39;3.03;;;1.20;;
62163;SDS011;48149;51.132;7.178;2022-07-04T13:36:05;3.15;;;0.93;;
62163;SDS011;48149;51.132;7.178;2022-07-04T13:38:31;1.63;;;0.85;;
62163;SDS011;48149;51.132;7.178;2022-07-04T13:40:56;0.98;;;0.65;;
62163;SDS011;48149;51.132;7.178;2022-07-04T13:43:23;1.77;;;0.80;;
62163;SDS011;48149;51.132;7.178;2022-07-04T13:45:52;1.88;;;0.98;;
62163;SDS011;48149;51.132;7.178;2022-07-04T13:48:24;2.53;;;0.85;;
62163;SDS011;48149;51.132;7.178;2022-07-04T13:50:52;3.53;;;1.00;;
62163;SDS011;48149;51.132;7.178;2022-07-04T13:53:17;1.75;;;1.00;;
62163;SDS011;48149;51.132;7.178;2022-07-04T13:55:45;1.83;;;0.77;;
62163;SDS011;48149;51.132;7.178;2022-07-04T13:58:12;1.80;;;1.00;;
62163;SDS011;48149;51.132;7.178;2022-07-04T14:03:10;2.00;;;1.05;;
62163;SDS011;48149;51.132;7.178;2022-07-04T14:08:25;1.30;;;1.00;;
62163;SDS011;48149;51.132;7.178;2022-07-04T14:10:51;2.08;;;1.00;;
62163;SDS011;48149;51.132;7.178;2022-07-04T14:13:18;1.90;;;1.10;;
62163;SDS011;48149;51.132;7.178;2022-07-04T14:15:54;3.42;;;0.95;;
62163;SDS011;48149;51.132;7.178;2022-07-04T14:18:25;1.90;;;1.08;;
62163;SDS011;48149;51.132;7.178;2022-07-04T14:20:56;2.60;;;1.10;;
62163;SDS011;48149;51.132;7.178;2022-07-04T14:23:28;2.13;;;1.00;;
62163;SDS011;48149;51.132;7.178;2022-07-04T14:26:11;1.20;;;0.80;;
62163;SDS011;48149;51.132;7.178;2022-07-04T14:28:55;1.48;;;0.90;;
62163;SDS011;48149;51.132;7.178;2022-07-04T14:31:57;2.25;;;0.85;;
62163;SDS011;48149;51.132;7.178;2022-07-04T14:34:26;2.13;;;0.75;;
62163;SDS011;48149;51.132;7.178;2022-07-04T14:37:06;1.85;;;0.93;;
62163;SDS011;48149;51.132;7.178;2022-07-04T14:39:42;2.85;;;1.00;;
62163;SDS011;48149;51.132;7.178;2022-07-04T14:42:32;1.77;;;0.88;;
62163;SDS011;48149;51.132;7.178;2022-07-04T14:45:30;1.98;;;1.10;;
62163;SDS011;48149;51.132;7.178;2022-07-04T14:48:15;2.65;;;1.00;;
62163;SDS011;48149;51.132;7.178;2022-07-04T14:50:41;1.90;;;0.98;;
62163;SDS011;48149;51.132;7.178;2022-07-04T14:53:07;1.52;;;0.93;;
62163;SDS011;48149;51.132;7.178;2022-07-04T14:58:33;2.17;;;1.00;;
62163;SDS011;48149;51.132;7.178;2022-07-04T15:01:19;1.25;;;0.82;;
62163;SDS011;48149;51.132;7.178;2022-07-04T15:04:08;4.87;;;0.73;;
62163;SDS011;48149;51.132;7.178;2022-07-04T15:06:57;3.13;;;1.08;;
62163;SDS011;48149;51.132;7.178;2022-07-04T15:10:05;1.73;;;0.90;;
62163;SDS011;48149;51.132;7.178;2022-07-04T15:12:53;1.67;;;0.93;;
62163;SDS011;48149;51.132;7.178;2022-07-04T15:15:22;4.47;;;0.90;;
62163;SDS011;48149;51.132;7.178;2022-07-04T15:17:59;1.08;;;0.70;;
62163;SDS011;48149;51.132;7.178;2022-07-04T15:20:56;1.80;;;1.05;;
62163;SDS011;48149;51.132;7.178;2022-07-04T15:23:50;1.25;;;0.80;;
62163;SDS011;48149;51.132;7.178;2022-07-04T15:26:38;3.90;;;1.02;;
62163;SDS011;48149;51.132;7.178;2022-07-04T15:29:30;1.13;;;0.73;;
62163;SDS011;48149;51.132;7.178;2022-07-04T15:32:08;2.50;;;0.88;;
62163;SDS011;48149;51.132;7.178;2022-07-04T15:38:01;2.28;;;1.10;;
62163;SDS011;48149;51.132;7.178;2022-07-04T15:40:34;2.30;;;0.80;;
62163;SDS011;48149;51.132;7.178;2022-07-04T15:53:49;2.83;;;1.00;;
62163;SDS011;48149;51.132;7.178;2022-07-04T15:56:35;7.47;;;1.13;;
62163;SDS011;48149;51.132;7.178;2022-07-04T15:59:11;1.70;;;0.90;;
62163;SDS011;48149;51.132;7.178;2022-07-04T16:01:41;6.07;;;1.45;;
62163;SDS011;48149;51.132;7.178;2022-07-04T16:04:19;1.55;;;1.00;;
62163;SDS011;48149;51.132;7.178;2022-07-04T16:07:18;1.10;;;0.80;;